Terminal Aerodrome Forecast
Issued by NWS Pendleton, OR

Home | Current Version | Previous Version | Text Only | Print | Product List | Glossary On
Versions: 1 2 3 4 5 6 7 8 9 10 11 12
000
FTUS46 KPDT 181100
TAFPDT
TAF
KPDT 181139Z 1812/1912 15006KT P6SM FEW150 SCT200
     FM181400 18008KT P6SM FEW120 FEW150
     FM181600 24010G20KT P6SM SCT120
     FM181800 27017G27KT P6SM SCT090 BKN120
     FM190400 24015G22KT P6SM BKN070 BKN090=

USA.gov is the U.S. government's official web portal to all federal, state and local government web resources and services.